createdAt,value
2023-02-06T00:04:27.909Z,92.78
2023-02-06T00:10:29.670Z,85.55
2023-02-06T00:16:34.349Z,75.82
2023-02-06T00:22:36.247Z,69.47
2023-02-06T00:28:38.103Z,58.50
2023-02-06T00:34:39.834Z,62.22
2023-02-06T00:40:41.599Z,54.38
2023-02-06T00:46:43.396Z,64.68
2023-02-06T00:52:45.223Z,69.93
2023-02-06T00:58:47.324Z,60.97
2023-02-06T01:04:49.149Z,61.55
2023-02-06T01:10:51.448Z,58.83
2023-02-06T01:16:53.553Z,69.22
2023-02-06T01:22:55.337Z,71.82
2023-02-06T01:28:57.337Z,67.32
2023-02-06T01:34:59.096Z,77.38
2023-02-06T01:41:01.790Z,75.75
2023-02-06T01:47:03.592Z,80.72
2023-02-06T01:53:06.902Z,81.93
2023-02-06T01:59:08.838Z,80.50
2023-02-06T02:05:12.637Z,80.63
2023-02-06T02:11:20.138Z,79.28
2023-02-06T02:17:31.983Z,88.72
2023-02-06T02:23:45.225Z,76.43
2023-02-06T02:30:35.544Z,75.22
2023-02-06T02:36:59.316Z,72.25
2023-02-06T02:43:12.251Z,64.38
2023-02-06T02:49:25.033Z,73.88
2023-02-06T02:55:27.791Z,64.90
2023-02-06T03:01:56.128Z,57.80
2023-02-06T03:08:32.412Z,58.83
2023-02-06T03:14:44.250Z,56.70
2023-02-06T03:20:47.644Z,68.32
2023-02-06T03:26:53.107Z,79.93
2023-02-06T03:33:00.826Z,74.47
2023-02-06T03:39:02.838Z,80.35
2023-02-06T03:45:14.345Z,74.07
2023-02-06T03:51:26.095Z,63.15
2023-02-06T03:57:30.326Z,59.58
2023-02-06T04:03:32.988Z,66.28
2023-02-06T04:09:34.759Z,59.17
2023-02-06T04:15:36.991Z,61.25
2023-02-06T04:21:38.901Z,55.13
2023-02-06T04:27:40.720Z,55.22
2023-02-06T04:33:42.547Z,47.55
2023-02-06T04:39:44.296Z,50.78
2023-02-06T04:45:47.034Z,47.85
2023-02-06T04:51:48.752Z,44.08
2023-02-06T04:57:50.554Z,48.63
2023-02-06T05:03:52.367Z,43.42
2023-02-06T05:09:54.108Z,42.35
2023-02-06T05:15:58.044Z,42.58
2023-02-06T05:21:59.830Z,42.67
2023-02-06T05:28:02.729Z,39.13
2023-02-06T05:34:04.782Z,41.70
2023-02-06T05:40:07.394Z,41.72
2023-02-06T05:46:09.569Z,48.40
2023-02-06T05:52:11.699Z,42.00
2023-02-06T05:58:13.518Z,47.45
2023-02-06T06:04:15.400Z,43.58
2023-02-06T06:10:17.266Z,40.10
2023-02-06T06:16:19.049Z,41.17
2023-02-06T06:22:20.847Z,42.22
2023-02-06T06:28:22.728Z,42.33
2023-02-06T06:34:24.751Z,34.42
2023-02-06T06:40:26.564Z,41.22
2023-02-06T06:46:28.498Z,50.45
2023-02-06T06:52:30.311Z,49.30
2023-02-06T06:58:32.414Z,43.22
2023-02-06T07:04:34.487Z,50.75
2023-02-06T07:10:36.274Z,44.92
2023-02-06T07:16:38.196Z,45.15
2023-02-06T07:22:40.064Z,58.38
2023-02-06T07:28:42.325Z,54.15
2023-02-06T07:34:44.298Z,51.22
2023-02-06T07:40:46.271Z,56.35
2023-02-06T07:46:48.114Z,59.28
2023-02-06T07:52:49.889Z,48.33
2023-02-06T07:58:53.607Z,54.20
2023-02-06T08:04:55.355Z,56.97
2023-02-06T08:10:57.113Z,64.55
2023-02-06T08:16:59.800Z,65.30
2023-02-06T08:23:01.649Z,50.67
2023-02-06T08:29:05.178Z,51.65
2023-02-06T08:35:07.058Z,49.55
2023-02-06T08:41:22.499Z,43.88
2023-02-06T08:47:24.269Z,45.47
2023-02-06T08:53:26.057Z,38.45
2023-02-06T08:59:31.167Z,42.80
2023-02-06T09:05:32.914Z,49.90
2023-02-06T09:11:34.968Z,62.75
2023-02-06T09:17:36.690Z,51.22
2023-02-06T09:23:43.825Z,47.50
2023-02-06T09:29:46.799Z,47.28
2023-02-06T09:35:48.631Z,44.30
2023-02-06T09:41:57.943Z,43.22
2023-02-06T09:48:22.277Z,41.38
2023-02-06T09:54:38.378Z,44.13
2023-02-06T10:00:46.692Z,41.60
2023-02-06T10:06:55.882Z,35.40
2023-02-06T10:13:03.993Z,40.58
2023-02-06T10:19:16.203Z,33.05
2023-02-06T10:25:29.866Z,26.20
2023-02-06T10:31:47.736Z,23.27
2023-02-06T10:38:17.211Z,23.35
2023-02-06T10:44:27.927Z,25.95
2023-02-06T10:50:54.405Z,35.55
2023-02-06T10:56:58.105Z,27.30
2023-02-06T11:03:08.140Z,38.42
2023-02-06T11:09:10.936Z,36.38
2023-02-06T11:15:32.594Z,46.92
2023-02-06T11:21:46.252Z,29.02
2023-02-06T11:27:48.864Z,67.28
2023-02-06T11:33:56.792Z,29.20
2023-02-06T11:40:30.998Z,29.33
2023-02-06T11:46:37.043Z,21.30
2023-02-06T11:52:40.047Z,21.92
2023-02-06T11:58:42.187Z,23.52
2023-02-06T12:04:43.921Z,21.33
2023-02-06T12:10:59.644Z,24.38
2023-02-06T12:17:04.098Z,23.50
2023-02-06T12:23:15.387Z,23.50
2023-02-06T12:29:30.262Z,29.98
2023-02-06T12:35:41.244Z,21.55
2023-02-06T12:42:04.502Z,25.83
2023-02-06T12:48:24.803Z,26.23
2023-02-06T12:54:37.419Z,21.85
2023-02-06T13:01:03.001Z,24.55
2023-02-06T13:07:16.117Z,19.98
2023-02-06T13:13:28.682Z,26.98
2023-02-06T13:19:52.784Z,20.90
2023-02-06T13:25:54.589Z,28.77
2023-02-06T13:32:11.928Z,21.73
2023-02-06T13:38:22.835Z,21.67
2023-02-06T13:44:33.816Z,49.58
2023-02-06T13:50:45.707Z,20.33
2023-02-06T13:57:04.743Z,79.07
2023-02-06T14:03:30.525Z,21.27
2023-02-06T14:10:05.165Z,29.10
2023-02-06T14:16:33.445Z,27.98
2023-02-06T14:22:58.780Z,15.98
2023-02-06T14:29:38.845Z,13.25
2023-02-06T14:36:09.493Z,18.50
2023-02-06T14:42:22.510Z,17.08
2023-02-06T14:48:46.319Z,13.73
2023-02-06T14:54:48.127Z,18.40
2023-02-06T15:00:49.906Z,14.93
2023-02-06T15:07:03.246Z,21.95
2023-02-06T15:13:05.197Z,14.13
2023-02-06T15:19:21.833Z,12.95
2023-02-06T15:25:53.794Z,11.45
2023-02-06T15:32:00.742Z,24.08
2023-02-06T15:38:05.936Z,31.13
2023-02-06T15:44:18.638Z,16.10
2023-02-06T15:50:24.891Z,18.02
2023-02-06T15:56:30.627Z,17.25
2023-02-06T16:02:35.845Z,13.40
2023-02-06T16:08:38.111Z,10.48
2023-02-06T16:14:41.754Z,14.60
2023-02-06T16:20:44.080Z,12.80
2023-02-06T16:26:52.179Z,12.70
2023-02-06T16:32:55.715Z,12.40
2023-02-06T16:39:03.988Z,13.38
2023-02-06T16:45:09.816Z,16.77
2023-02-06T16:51:23.813Z,14.23
2023-02-06T16:57:33.101Z,9.32
2023-02-06T17:03:37.811Z,15.02
2023-02-06T17:09:40.109Z,13.43
2023-02-06T17:15:42.493Z,15.25
2023-02-06T17:21:44.282Z,19.20
2023-02-06T17:27:46.196Z,14.73
2023-02-06T17:33:48.135Z,11.30
2023-02-06T17:39:52.315Z,21.50
2023-02-06T17:45:54.129Z,23.13
2023-02-06T17:51:56.624Z,22.15
2023-02-06T17:57:58.905Z,26.95
2023-02-06T18:04:01.022Z,26.17
2023-02-06T18:10:02.791Z,28.85
2023-02-06T18:16:04.780Z,33.22
2023-02-06T18:22:06.986Z,22.55
2023-02-06T18:28:09.260Z,32.58
2023-02-06T18:34:11.423Z,25.63
2023-02-06T18:40:13.284Z,18.20
2023-02-06T18:46:15.094Z,20.63
2023-02-06T18:52:17.873Z,19.40
2023-02-06T18:58:19.674Z,20.02
2023-02-06T19:04:21.816Z,15.25
2023-02-06T19:10:23.831Z,18.23
2023-02-06T19:16:28.249Z,17.45
2023-02-06T19:22:30.065Z,27.85
2023-02-06T19:28:31.845Z,47.58
2023-02-06T19:34:37.428Z,40.90
2023-02-06T19:40:40.234Z,32.63
2023-02-06T19:46:42.071Z,32.17
2023-02-06T19:52:43.826Z,25.02
2023-02-06T19:58:45.684Z,26.25
2023-02-06T20:04:47.478Z,30.13
2023-02-06T20:10:49.226Z,80.25
2023-02-06T20:16:51.116Z,81.32
2023-02-06T20:22:52.905Z,20.58
2023-02-06T20:28:55.162Z,16.50
2023-02-06T20:34:57.783Z,13.60
2023-02-06T20:40:59.575Z,17.75
2023-02-06T20:47:01.396Z,12.63
2023-02-06T20:53:06.384Z,54.55
2023-02-06T20:59:11.921Z,12.32
2023-02-06T21:05:13.632Z,10.23
2023-02-06T21:11:15.782Z,34.22
2023-02-06T21:17:17.518Z,8.98
2023-02-06T21:23:19.238Z,48.05
2023-02-06T21:29:22.988Z,7.82
2023-02-06T21:35:28.635Z,7.13
2023-02-06T21:41:30.490Z,7.45
2023-02-06T21:47:32.304Z,10.57
2023-02-06T21:53:34.075Z,8.35
2023-02-06T21:59:37.975Z,6.05
2023-02-06T22:05:40.141Z,10.55
2023-02-06T22:11:43.162Z,8.93
2023-02-06T22:17:44.928Z,8.93
2023-02-06T22:23:48.054Z,6.47
2023-02-06T22:29:50.283Z,8.23
2023-02-06T22:35:52.029Z,11.88
2023-02-06T22:41:53.796Z,8.30
2023-02-06T22:47:55.526Z,11.13
2023-02-06T22:53:57.676Z,8.13
2023-02-06T22:59:59.501Z,11.02
2023-02-06T23:06:02.874Z,11.13
2023-02-06T23:12:08.488Z,8.90
2023-02-06T23:18:10.293Z,10.90
2023-02-06T23:24:12.796Z,10.18
2023-02-06T23:30:14.502Z,8.50
2023-02-06T23:36:18.755Z,10.23
2023-02-06T23:42:20.493Z,11.52
2023-02-06T23:48:22.228Z,13.20
2023-02-06T23:54:24.000Z,13.45
